Date,TemperatureHighF,TemperatureAvgF,TemperatureLowF,DewpointHighF,DewpointAvgF,DewpointLowF,HumidityHigh,HumidityAvg,HumidityLow,PressureMaxIn,PressureMinIn,WindSpeedMaxMPH,WindSpeedAvgMPH,GustSpeedMaxMPH,PrecipitationSumIn
2013-1-1,55,42,34,38,34,31,96,73,46,30.22,29.95,8,1,10,0.01
2013-1-2,62,46,36,39,33,28,78,61,42,30.05,29.83,4,0,8,0.00
2013-1-3,56,46,37,49,38,28,96,75,53,30.03,29.77,20,3,20,0.18
2013-1-4,61,48,42,54,45,39,96,89,63,30.15,29.88,9,1,10,0.04
2013-1-5,52,45,42,49,43,41,96,93,75,29.98,29.87,6,0,7,0.06
2013-1-6,54,46,40,51,43,39,96,89,72,30.06,29.85,13,2,21,0.05
2013-1-7,52,50,47,50,49,44,97,95,90,30.05,29.90,21,6,24,0.41
2013-1-8,52,51,49,50,49,48,96,95,91,30.06,29.75,24,10,24,0.21
2013-1-9,51,45,37,49,41,32,96,86,63,29.83,29.62,21,4,21,0.34
2013-1-10,48,40,36,44,38,34,97,90,71,29.99,29.84,10,2,12,0.32
2013-1-11,57,40,31,47,34,27,96,79,40,30.13,29.98,6,0,8,0.02
2013-1-12,56,37,29,38,29,25,87,76,39,30.24,30.07,3,0,4,0.00
2013-1-13,48,34,28,40,28,24,94,80,53,30.32,30.18,4,0,5,0.00
2013-1-14,46,36,28,39,31,24,94,83,59,30.38,30.27,2,0,29,0.01
2013-1-15,60,41,31,49,36,27,95,82,48,30.44,30.35,5,0,8,0.00
2013-1-16,61,38,29,49,32,26,95,82,51,30.45,30.19,4,0,4,0.00
2013-1-17,73,42,31,58,35,28,96,81,35,30.24,29.99,2,0,4,0.01
2013-1-18,60,41,33,54,36,31,98,84,55,30.07,29.98,4,0,6,0.00
2013-1-19,45,38,32,44,37,30,97,94,90,30.12,30.03,2,0,3,0.00
2013-1-20,59,40,31,51,36,29,98,85,55,30.15,29.95,3,0,4,0.01
2013-1-21,64,39,30,51,34,28,97,83,54,30.06,29.85,4,0,5,0.00
2013-1-22,70,47,33,48,39,31,95,76,28,29.92,29.67,11,1,14,0.01
2013-1-23,49,45,38,49,44,38,99,97,92,30.02,29.63,7,0,7,0.32
2013-1-24,41,39,34,41,38,34,99,99,97,30.05,29.89,2,0,2,0.00
2013-1-25,40,40,40,40,40,40,99,99,99,29.89,29.89,0,0,0,0.00
2013-1-26,40,40,40,40,40,40,99,99,99,29.89,29.89,0,0,0,0.00
2013-1-27,40,40,40,40,40,40,99,99,99,29.89,29.89,0,0,0,0.00
2013-1-28,40,40,40,40,40,40,99,99,99,29.89,29.89,0,0,0,0.00
2013-1-29,40,40,40,40,40,40,99,99,99,29.89,29.89,0,0,0,0.00
2013-1-30,40,40,40,40,40,40,99,99,99,29.89,29.89,0,0,0,0.00
2013-1-31,40,40,40,40,40,40,99,99,99,29.89,29.89,0,0,0,0.00
2013-2-1,40,40,40,40,40,40,99,99,99,29.89,29.89,0,0,0,0.00
2013-2-2,40,40,40,40,40,40,99,99,99,29.89,29.89,0,0,0,0.00
2013-2-3,40,40,40,40,40,40,99,99,99,29.89,29.89,0,0,0,0.00
2013-2-4,40,40,40,40,40,40,99,99,99,29.89,29.89,0,0,0,0.00
2013-2-5,40,40,40,40,40,40,99,99,99,29.89,29.89,0,0,0,0.00
2013-2-6,40,40,40,40,40,40,99,99,99,29.89,29.89,0,0,0,0.00
2013-2-7,40,40,40,40,40,40,99,99,99,29.89,29.89,0,0,0,0.00
2013-2-8,40,40,40,40,40,40,99,99,99,29.89,29.89,0,0,0,0.00
2013-2-9,48,46,45,44,43,43,94,91,87,29.99,29.90,3,0,3,1.64
2013-2-10,45,45,45,44,44,44,94,94,94,30.00,29.99,0,0,0,0.00
2013-2-16,57,48,41,48,44,40,95,88,66,30.35,30.28,4,1,4,0.00
2013-2-17,57,43,36,50,38,32,96,85,57,30.33,30.09,5,1,5,0.00
2013-2-18,52,41,35,45,38,32,96,89,70,30.09,29.70,8,2,8,0.00
2013-2-19,55,43,39,46,40,37,96,88,63,30.02,29.63,4,1,4,0.00
2013-2-20,50,42,36,45,39,34,95,90,74,30.15,30.04,10,2,10,0.00
2013-2-21,47,44,41,45,42,36,96,89,76,30.26,30.16,10,3,10,0.00
2013-2-22,50,45,40,48,42,37,96,91,85,30.22,29.73,20,6,20,0.00
2013-2-23,54,43,37,45,38,34,93,85,61,30.16,29.72,14,1,14,0.00
2013-2-24,54,45,36,45,39,34,96,81,55,30.19,29.91,21,4,21,0.00
2013-2-25,55,46,41,46,40,36,95,81,53,30.42,29.91,16,4,21,0.00
2013-2-26,55,44,34,40,36,31,90,76,52,30.41,30.23,11,3,11,0.00
2013-2-27,52,49,48,50,42,36,94,76,63,30.29,30.19,16,4,16,0.00
2013-2-28,52,51,50,51,50,49,96,94,93,30.47,30.19,20,9,23,0.00
2013-3-1,56,53,51,54,50,49,96,90,84,30.49,30.33,13,4,14,0.00
2013-3-2,53,50,40,50,47,40,97,90,86,30.33,30.21,8,2,8,0.00
2013-3-3,58,44,34,43,38,31,97,82,55,30.32,30.19,10,2,99,0.00
2013-3-4,55,41,32,44,36,29,96,82,52,30.19,29.84,17,2,17,0.00
2013-3-5,46,44,39,42,41,36,93,89,71,29.85,29.57,8,1,8,0.00
2013-3-6,51,45,42,46,42,39,95,89,75,29.93,29.52,19,3,21,0.00
2013-3-7,43,43,43,39,39,39,87,87,87,29.93,29.93,0,0,4,0.00
2013-3-8,43,43,43,39,39,39,87,87,87,29.93,29.93,0,0,4,0.00
2013-3-9,43,43,43,39,39,39,87,87,87,29.93,29.93,0,0,4,0.00
2013-3-10,43,43,43,39,39,39,87,87,87,29.93,29.93,0,0,4,0.00
2013-3-11,43,43,43,39,39,39,87,87,87,29.93,29.93,0,0,4,0.00
2013-3-12,43,43,43,39,39,39,87,87,87,29.93,29.93,0,0,4,0.00
2013-3-13,43,43,43,39,39,39,87,87,87,29.93,29.93,0,0,4,0.00
2013-3-14,43,43,43,39,39,39,87,87,87,29.93,29.93,0,0,4,0.00
2013-3-15,43,43,43,39,39,39,87,87,87,29.93,29.93,0,0,4,0.00
2013-3-16,43,43,43,39,39,39,87,87,87,29.93,29.93,0,0,4,0.00
2013-3-17,43,43,43,39,39,39,87,87,87,29.93,29.93,0,0,4,0.00
2013-3-18,43,43,43,39,39,39,87,87,87,29.93,29.93,0,0,4,0.00
2013-3-19,43,43,43,39,39,39,87,87,87,29.93,29.93,0,0,4,0.00
2013-3-20,43,43,43,39,39,39,87,87,87,29.93,29.93,0,0,4,0.00
2013-3-21,43,43,43,39,39,39,87,87,87,29.93,29.93,0,0,4,0.00
2013-3-22,43,43,43,39,39,39,87,87,87,29.93,29.93,0,0,4,0.00
2013-3-23,43,43,43,39,39,39,87,87,87,29.93,29.93,0,0,4,0.00
2013-3-24,43,43,43,39,39,39,87,87,87,29.93,29.93,0,0,4,0.00
2013-5-27,57,54,52,56,53,51,97,96,93,30.08,29.88,24,7,24,0.05
2013-5-28,63,55,51,54,51,47,97,87,66,30.20,29.94,19,4,19,0.01
2013-5-29,59,55,50,54,51,48,96,89,81,30.33,29.85,27,6,27,0.00
2013-5-30,65,55,48,55,50,45,95,84,63,30.49,30.33,11,2,11,0.00
2013-5-31,69,54,43,55,48,42,96,81,55,30.62,30.44,10,2,11,0.00
2013-6-1,69,58,46,56,50,43,95,78,57,30.50,30.30,50,2,50,0.02
2013-6-2,62,55,54,57,52,51,95,90,68,30.36,30.30,4,1,7,0.01
2013-6-11,63,57,49,51,48,45,90,75,64,30.42,30.33,8,3,8,0.00
2013-6-12,62,51,45,54,47,43,93,86,65,30.49,30.39,8,2,8,0.01
2013-6-13,62,55,51,55,52,49,93,88,75,30.55,30.44,8,4,8,0.01
2013-6-14,70,66,54,55,54,49,82,64,58,30.39,30.17,7,4,7,0.00
2013-6-15,61,58,51,55,53,49,93,83,77,30.29,30.19,7,3,7,0.01
2013-6-16,65,60,56,57,52,50,90,77,66,30.46,30.32,10,4,10,0.02
2013-6-17,64,57,48,54,53,46,93,87,66,30.38,30.21,11,5,15,0.00
2013-6-18,63,57,51,55,52,49,94,83,67,30.28,30.15,21,5,21,0.00
2013-6-19,54,54,53,51,51,49,90,90,87,30.26,30.18,6,2,7,0.00
2013-6-20,54,54,54,51,51,51,90,90,90,30.26,30.26,2,2,2,0.00
2013-6-21,54,54,54,51,51,51,90,90,90,30.26,30.26,2,2,2,0.00
2013-6-22,54,54,54,51,51,51,90,90,90,30.26,30.26,2,2,2,0.00
2013-6-23,54,54,54,51,51,51,90,90,90,30.26,30.26,2,2,2,0.00
2013-6-24,54,54,54,51,51,51,90,90,90,30.26,30.26,2,2,2,0.00
2013-6-25,54,54,54,51,51,51,90,90,90,30.26,30.26,2,2,2,0.00
2013-6-26,54,54,54,51,51,51,90,90,90,30.26,30.26,2,2,2,0.00
2013-6-27,54,54,54,51,51,51,90,90,90,30.26,30.26,2,2,2,0.00
2013-6-28,54,54,54,51,51,51,90,90,90,30.26,30.26,2,2,2,0.00
2013-6-29,54,54,54,51,51,51,90,90,90,30.26,30.26,2,2,2,0.00
2013-6-30,54,54,54,51,51,51,90,90,90,30.26,30.26,2,2,2,0.00
2013-7-1,54,54,54,51,51,51,90,90,90,30.26,30.26,2,2,2,0.00
2013-7-2,54,54,54,51,51,51,90,90,90,30.26,30.26,2,2,2,0.00
2013-7-3,54,54,54,51,51,51,90,90,90,30.26,30.26,2,2,2,0.00
2013-7-4,54,54,54,51,51,51,90,90,90,30.26,30.26,2,2,2,0.00
2013-7-5,54,54,54,51,51,51,90,90,90,30.26,30.26,2,2,2,0.00
2013-7-6,54,54,54,51,51,51,90,90,90,30.26,30.26,2,2,2,0.00
2013-7-7,54,54,54,51,51,51,90,90,90,30.26,30.26,2,2,2,0.00
2013-7-8,54,54,54,51,51,51,90,90,90,30.26,30.26,2,2,2,0.00
2013-7-9,54,54,54,51,51,51,90,90,90,30.26,30.26,2,2,2,0.00
2013-9-27,59,59,59,56,56,56,91,91,91,29.77,29.77,3,3,17,0.00
2013-9-28,61,58,53,58,56,51,92,91,86,29.85,29.55,36,11,41,0.00
2013-9-29,59,58,55,55,54,52,91,88,84,29.91,29.71,35,11,35,0.00
2013-11-4,52,49,45,50,47,43,93,90,85,30.74,30.66,15,2,15,0.00
2013-11-5,54,53,51,52,50,49,93,92,90,30.82,30.65,11,4,11,0.00
2013-11-6,57,54,52,56,52,51,95,94,93,30.84,30.64,5,1,5,0.00
2013-11-7,55,51,48,54,49,45,94,91,84,30.75,30.51,16,4,16,0.00
2013-11-8,56,49,42,52,46,40,94,89,73,30.78,30.66,4,0,4,0.00
2013-11-9,54,47,41,52,44,39,94,90,81,30.65,30.15,2,0,2,0.00
2013-11-10,66,49,44,56,45,42,94,88,55,30.27,30.17,11,1,11,0.00
2013-11-11,71,51,42,56,46,41,94,84,48,30.26,30.13,4,1,6,0.00
2013-11-23,71,53,39,39,30,20,84,46,18,30.81,30.60,7,2,7,0.00
2013-11-24,65,45,36,46,36,31,94,75,37,30.78,30.62,8,3,8,0.00
2013-11-25,61,43,34,49,38,33,99,88,50,30.85,30.79,5,3,5,0.00
2013-11-26,61,46,36,52,42,35,99,87,54,30.79,30.56,5,1,5,0.00
2013-11-27,64,49,41,50,42,38,95,78,55,30.56,30.43,3,1,3,0.00
2013-11-28,66,44,37,49,40,36,99,88,54,30.67,30.31,3,2,3,0.00
2013-11-29,52,44,35,51,43,34,99,96,94,30.54,30.41,3,1,3,0.00